createdAt,value
2023-02-19T00:28:48.471Z,1009.3
2023-02-19T00:29:30.338Z,1009.33
2023-02-19T00:30:10.767Z,1009.31
2023-02-19T00:30:51.308Z,1009.22
2023-02-19T00:31:33.083Z,1009.32
2023-02-19T00:32:12.632Z,1009.31
2023-02-19T00:32:52.965Z,1009.35
2023-02-19T00:33:33.666Z,1009.3
2023-02-19T00:34:14.075Z,1009.29
2023-02-19T00:34:54.707Z,1009.4
2023-02-19T00:35:35.162Z,1009.34
2023-02-19T00:36:15.788Z,1009.34
2023-02-19T00:36:56.294Z,1009.3
2023-02-19T00:38:17.475Z,1009.28
2023-02-19T00:38:58.031Z,1009.32
2023-02-19T00:39:38.605Z,1009.3
2023-02-19T00:40:19.295Z,1009.27
2023-02-19T00:43:43.884Z,1009.33
2023-02-19T00:46:31.157Z,1009.28
2023-02-19T00:47:11.587Z,1009.28
2023-02-19T00:47:52.281Z,1009.24
2023-02-19T00:48:32.901Z,1009.21
2023-02-19T00:49:13.379Z,1009.19
2023-02-19T00:49:53.847Z,1009.21
2023-02-19T00:52:08.501Z,1009.18
2023-02-19T00:52:49.011Z,1009.2
2023-02-19T00:53:29.533Z,1009.14
2023-02-19T00:54:10.144Z,1009.17
2023-02-19T00:54:50.794Z,1009.13
2023-02-19T00:55:31.233Z,1009.1
2023-02-19T00:56:11.733Z,1009.08
2023-02-19T00:56:52.362Z,1009.09
2023-02-19T00:58:13.621Z,1009.12
2023-02-19T00:58:54.192Z,1009.1
2023-02-19T00:59:34.736Z,1008.93
2023-02-19T01:00:15.305Z,1009.07
2023-02-19T01:00:55.817Z,1009.03
2023-02-19T01:01:36.431Z,1009.01
2023-02-19T01:02:16.805Z,1008.97
2023-02-19T01:02:57.305Z,1008.96
2023-02-19T01:03:38.077Z,1009
2023-02-19T01:04:18.545Z,1008.98
2023-02-19T01:04:59.062Z,1008.97
2023-02-19T01:05:39.768Z,1009.06
2023-02-19T01:06:20.294Z,1008.93
2023-02-19T01:07:00.854Z,1008.95
2023-02-19T01:07:41.431Z,1009
2023-02-19T01:08:21.886Z,1008.96
2023-02-19T01:09:02.457Z,1008.9
2023-02-19T01:09:42.867Z,1008.98
2023-02-19T01:10:23.494Z,1009.01
2023-02-19T01:11:03.926Z,1008.99
2023-02-19T01:11:44.378Z,1009.01
2023-02-19T01:12:24.966Z,1009.05
2023-02-19T01:13:06.377Z,1009.07
2023-02-19T01:13:46.843Z,1009.07
2023-02-19T01:14:27.318Z,1009.05
2023-02-19T01:15:07.836Z,1009.02
2023-02-19T01:15:48.395Z,1009.03
2023-02-19T01:16:28.878Z,1009
2023-02-19T01:17:09.403Z,1009.1
2023-02-19T01:17:50.704Z,1009.03
2023-02-19T01:18:31.211Z,1008.98
2023-02-19T01:21:48.120Z,1009.03
2023-02-19T01:22:28.640Z,1008.89
2023-02-19T01:23:09.064Z,1009.03
2023-02-19T01:23:49.561Z,1009.02
2023-02-19T01:24:30.056Z,1009.04
2023-02-19T01:25:10.642Z,1009.04
2023-02-19T01:25:51.062Z,1009.06
2023-02-19T01:26:31.516Z,1008.98
2023-02-19T01:27:12.012Z,1009.02
2023-02-19T01:27:52.680Z,1008.93
2023-02-19T01:28:33.029Z,1008.93
2023-02-19T01:29:13.536Z,1008.97
2023-02-19T01:29:54.010Z,1008.82
2023-02-19T01:30:34.555Z,1008.94
2023-02-19T01:31:15.226Z,1008.9
2023-02-19T01:31:55.641Z,1008.91
2023-02-19T01:32:36.102Z,1008.94
2023-02-19T01:33:16.594Z,1008.79
2023-02-19T01:33:57.145Z,1008.92
2023-02-19T01:34:37.677Z,1008.95
2023-02-19T01:35:18.187Z,1008.99
2023-02-19T01:35:58.946Z,1008.99
2023-02-19T01:36:39.449Z,1009.1
2023-02-19T01:37:20.126Z,1009.01
2023-02-19T01:38:00.522Z,1009.02
2023-02-19T01:38:41.056Z,1009.05
2023-02-19T01:39:21.506Z,1008.92
2023-02-19T01:40:42.480Z,1009
2023-02-19T01:41:22.983Z,1009.02
2023-02-19T01:42:03.470Z,1008.92
2023-02-19T01:42:44.071Z,1008.99
2023-02-19T01:43:24.581Z,1009.08
2023-02-19T01:44:05.054Z,1008.94
2023-02-19T01:44:45.540Z,1008.96
2023-02-19T01:45:26.032Z,1008.97
2023-02-19T01:46:06.542Z,1008.99
2023-02-19T01:46:47.076Z,1008.94
2023-02-19T01:47:27.538Z,1008.86
2023-02-19T01:48:08.082Z,1008.9
2023-02-19T01:48:48.644Z,1008.83
2023-02-19T01:49:29.146Z,1008.87
2023-02-19T01:50:09.627Z,1008.79
2023-02-19T01:50:50.117Z,1008.93
2023-02-19T01:51:30.837Z,1008.87
2023-02-19T01:52:11.179Z,1008.82
2023-02-19T01:52:51.688Z,1008.84
2023-02-19T01:53:32.227Z,1008.91
2023-02-19T01:54:12.712Z,1008.86
2023-02-19T01:54:53.209Z,1008.93
2023-02-19T01:55:33.661Z,1008.94
2023-02-19T01:56:14.137Z,1008.93
2023-02-19T01:56:54.693Z,1008.82
2023-02-19T01:57:35.108Z,1008.9
2023-02-19T01:58:15.646Z,1008.91
2023-02-19T01:58:56.224Z,1008.97
2023-02-19T01:59:36.677Z,1008.95
2023-02-19T02:00:17.203Z,1008.96
2023-02-19T02:00:57.751Z,1008.88
2023-02-19T02:01:38.277Z,1009
2023-02-19T02:02:18.804Z,1008.77
2023-02-19T02:02:59.229Z,1008.87
2023-02-19T02:03:39.779Z,1008.97
2023-02-19T02:04:20.238Z,1009.04
2023-02-19T02:05:00.736Z,1009.03
2023-02-19T02:05:41.214Z,1009.09
2023-02-19T02:06:21.727Z,1008.9
2023-02-19T02:07:02.259Z,1009.01
2023-02-19T02:07:42.751Z,1009
2023-02-19T02:08:23.257Z,1009.02
2023-02-19T02:09:03.745Z,1008.99
2023-02-19T02:09:44.237Z,1009.08
2023-02-19T02:10:24.813Z,1009.01
2023-02-19T02:11:05.331Z,1009
2023-02-19T02:11:45.823Z,1008.99
2023-02-19T02:12:26.289Z,1008.93
2023-02-19T02:13:06.812Z,1008.89
2023-02-19T02:14:27.804Z,1008.88
2023-02-19T02:15:08.339Z,1009.03
2023-02-19T02:15:48.771Z,1008.96
2023-02-19T02:17:09.797Z,1008.94
2023-02-19T02:17:50.274Z,1008.89
2023-02-19T02:18:30.780Z,1009.05
2023-02-19T02:19:11.274Z,1008.98
2023-02-19T02:19:51.767Z,1008.98
2023-02-19T02:20:32.290Z,1008.94
2023-02-19T02:21:12.781Z,1008.85
2023-02-19T02:21:53.314Z,1008.96
2023-02-19T02:22:33.779Z,1008.91
2023-02-19T02:23:14.356Z,1008.99
2023-02-19T02:23:54.785Z,1009.05
2023-02-19T02:24:35.247Z,1008.94
2023-02-19T02:25:15.757Z,1008.82
2023-02-19T02:25:56.245Z,1008.95
2023-02-19T02:26:36.779Z,1009
2023-02-19T02:27:17.284Z,1009.02
2023-02-19T02:27:57.760Z,1008.93
2023-02-19T02:28:38.264Z,1008.98
2023-02-19T02:29:18.762Z,1008.93
2023-02-19T02:29:59.295Z,1008.91
2023-02-19T02:30:39.730Z,1008.97
2023-02-19T02:31:20.297Z,1008.97
2023-02-19T02:32:00.920Z,1008.9
2023-02-19T02:32:41.234Z,1008.89
2023-02-19T02:33:21.744Z,1008.93
2023-02-19T02:34:02.223Z,1008.99
2023-02-19T02:34:42.744Z,1009.01
2023-02-19T02:35:23.229Z,1008.95
2023-02-19T02:36:03.733Z,1008.94
2023-02-19T02:36:44.203Z,1008.89
2023-02-19T02:37:24.716Z,1008.97
2023-02-19T02:38:05.213Z,1008.9
2023-02-19T02:38:45.742Z,1008.9
2023-02-19T02:39:26.269Z,1008.83
2023-02-19T02:40:06.722Z,1008.83
2023-02-19T02:40:47.305Z,1008.89
2023-02-19T02:41:27.753Z,1008.91
2023-02-19T02:42:08.362Z,1008.87
2023-02-19T02:42:48.821Z,1008.88
2023-02-19T02:43:29.274Z,1008.88
2023-02-19T02:44:09.854Z,1008.86
2023-02-19T02:44:51.068Z,1008.94
2023-02-19T02:45:31.725Z,1008.69
2023-02-19T02:46:12.254Z,1008.79
2023-02-19T02:46:52.739Z,1008.85
2023-02-19T02:47:33.236Z,1008.89
2023-02-19T02:48:13.719Z,1008.86
2023-02-19T02:48:54.216Z,1008.86
2023-02-19T02:49:34.690Z,1008.83
2023-02-19T02:50:15.174Z,1008.79
2023-02-19T02:50:55.678Z,1008.91
2023-02-19T02:51:36.179Z,1008.85
2023-02-19T02:52:16.675Z,1008.89
2023-02-19T02:52:57.239Z,1008.89
2023-02-19T02:54:18.158Z,1008.92
2023-02-19T02:54:58.636Z,1008.69
2023-02-19T02:55:39.128Z,1008.92
2023-02-19T02:56:19.632Z,1008.89
2023-02-19T02:57:00.155Z,1008.91
2023-02-19T02:57:40.716Z,1008.97
2023-02-19T02:58:21.233Z,1008.97
2023-02-19T02:59:01.704Z,1008.93
2023-02-19T02:59:42.222Z,1008.96
2023-02-19T03:00:22.702Z,1009.01
2023-02-19T03:01:03.261Z,1008.97
2023-02-19T03:01:43.713Z,1008.94
2023-02-19T03:02:24.183Z,1008.93
2023-02-19T03:03:04.655Z,1008.91
2023-02-19T03:03:45.159Z,1008.99
2023-02-19T03:04:25.700Z,1008.98
2023-02-19T03:05:06.200Z,1008.99
2023-02-19T03:05:46.708Z,1009.02
2023-02-19T03:06:27.154Z,1009.03
2023-02-19T03:07:07.643Z,1009.03
2023-02-19T03:07:48.190Z,1009.02
2023-02-19T03:08:28.676Z,1009.08
2023-02-19T03:09:49.786Z,1009.05
2023-02-19T03:10:30.194Z,1009.07
2023-02-19T03:11:10.855Z,1008.92
2023-02-19T03:12:31.694Z,1009.02
2023-02-19T03:13:12.113Z,1009.03
2023-02-19T03:13:52.597Z,1008.96
2023-02-19T03:14:33.128Z,1009.1
2023-02-19T03:15:13.617Z,1009.05
2023-02-19T03:15:54.128Z,1009.11
2023-02-19T03:16:34.705Z,1009.09
2023-02-19T03:17:15.121Z,1009.14
2023-02-19T03:17:55.607Z,1009.09
2023-02-19T03:18:36.096Z,1009.19
2023-02-19T03:19:16.607Z,1009.11
2023-02-19T03:19:57.134Z,1009.14
2023-02-19T03:20:37.610Z,1009.14
2023-02-19T03:21:18.956Z,1009.16
2023-02-19T03:21:59.469Z,1009.15
2023-02-19T03:23:20.433Z,1009.09
2023-02-19T03:24:00.877Z,1009.08
2023-02-19T03:24:41.392Z,1009.13
2023-02-19T03:25:21.873Z,1009.06
2023-02-19T03:26:02.356Z,1009.12
2023-02-19T03:26:42.817Z,1009.12
2023-02-19T03:27:23.288Z,1009.19
2023-02-19T03:28:03.833Z,1009.05
2023-02-19T03:28:44.275Z,1009.19
2023-02-19T03:29:24.774Z,1009.22
2023-02-19T03:30:05.323Z,1009.19
2023-02-19T03:30:46.672Z,1009.23
2023-02-19T03:31:27.322Z,1009.18
2023-02-19T03:32:07.674Z,1009.23
2023-02-19T03:32:48.145Z,1009.29
2023-02-19T03:33:28.669Z,1009.27
2023-02-19T03:34:09.167Z,1009.25
2023-02-19T03:34:49.635Z,1009.31
2023-02-19T03:36:10.659Z,1009.23
2023-02-19T03:36:51.186Z,1009.26
2023-02-19T03:37:31.637Z,1009.26
2023-02-19T03:38:12.144Z,1009.32
2023-02-19T03:38:52.615Z,1009.25
2023-02-19T03:39:33.188Z,1009.23
2023-02-19T03:40:13.641Z,1009.29
2023-02-19T03:40:54.133Z,1009.33
2023-02-19T03:41:34.637Z,1009.3
2023-02-19T03:42:15.126Z,1009.26
2023-02-19T03:42:56.228Z,1009.29
2023-02-19T03:43:36.133Z,1009.31
2023-02-19T03:44:16.632Z,1009.34
2023-02-19T03:44:57.173Z,1009.3
2023-02-19T03:45:37.697Z,1009.22
2023-02-19T03:46:18.175Z,1009.25
2023-02-19T03:46:58.637Z,1009.31
2023-02-19T03:47:39.165Z,1009.3
2023-02-19T03:48:19.647Z,1009.31
2023-02-19T03:49:00.113Z,1009.28
2023-02-19T03:49:40.613Z,1009.28
2023-02-19T03:50:21.131Z,1009.25
2023-02-19T03:51:42.120Z,1009.29
2023-02-19T03:52:22.601Z,1009.37
2023-02-19T03:53:03.112Z,1009.31
2023-02-19T03:53:43.626Z,1009.39
2023-02-19T03:54:24.097Z,1009.39
2023-02-19T03:55:04.606Z,1009.43
2023-02-19T03:55:45.057Z,1009.39
2023-02-19T03:56:25.539Z,1009.43
2023-02-19T03:57:06.069Z,1009.44
2023-02-19T03:57:46.561Z,1009.44
2023-02-19T03:58:27.052Z,1009.42
2023-02-19T03:59:07.584Z,1009.49
2023-02-19T03:59:48.043Z,1009.44
2023-02-19T04:00:28.552Z,1009.53
2023-02-19T04:01:09.321Z,1009.44
2023-02-19T04:01:49.536Z,1009.47
2023-02-19T04:02:30.026Z,1009.44
2023-02-19T04:03:10.514Z,1009.5
2023-02-19T04:04:31.444Z,1009.46
2023-02-19T04:05:14.058Z,1009.55
2023-02-19T04:05:52.404Z,1009.58
2023-02-19T04:06:32.924Z,1009.55
2023-02-19T04:07:13.407Z,1009.49
2023-02-19T04:07:53.866Z,1009.52
2023-02-19T04:08:34.380Z,1009.53
2023-02-19T04:09:14.837Z,1009.52
2023-02-19T04:09:55.320Z,1009.58
2023-02-19T04:10:35.854Z,1009.56
2023-02-19T04:11:56.894Z,1009.55
2023-02-19T04:12:37.335Z,1009.54
2023-02-19T04:13:17.836Z,1009.51
2023-02-19T04:13:58.338Z,1009.44
2023-02-19T04:14:38.838Z,1009.48
2023-02-19T04:15:19.295Z,1009.41
2023-02-19T04:15:59.775Z,1009.45
2023-02-19T04:16:40.358Z,1009.5
2023-02-19T04:17:20.833Z,1009.56
2023-02-19T04:18:01.252Z,1009.6
2023-02-19T04:18:41.781Z,1009.59
2023-02-19T04:19:22.240Z,1009.6
2023-02-19T04:20:02.754Z,1009.52
2023-02-19T04:20:43.218Z,1009.56
2023-02-19T04:21:23.735Z,1009.62
2023-02-19T04:22:04.240Z,1009.62
2023-02-19T04:24:16.834Z,1009.68
2023-02-19T04:24:57.639Z,1009.66
2023-02-19T04:25:37.806Z,1009.65
2023-02-19T04:26:18.305Z,1009.7
2023-02-19T04:26:59.806Z,1009.7
2023-02-19T04:27:40.268Z,1009.76
2023-02-19T04:28:20.754Z,1009.77
2023-02-19T04:29:41.793Z,1009.72
2023-02-19T04:30:22.336Z,1009.7
2023-02-19T04:31:02.823Z,1009.64
2023-02-19T04:31:43.357Z,1009.76
2023-02-19T04:32:23.821Z,1009.79
2023-02-19T04:33:04.304Z,1009.77
2023-02-19T04:33:44.816Z,1009.87
2023-02-19T04:34:25.316Z,1009.79
2023-02-19T04:35:05.852Z,1009.84
2023-02-19T04:35:46.377Z,1009.78
2023-02-19T04:36:26.853Z,1009.86
2023-02-19T04:37:07.355Z,1009.87
2023-02-19T04:37:47.842Z,1009.78
2023-02-19T04:38:28.312Z,1009.81
2023-02-19T04:39:08.851Z,1009.94
2023-02-19T04:39:49.262Z,1009.92
2023-02-19T04:40:29.745Z,1010
2023-02-19T04:41:10.501Z,1009.99
2023-02-19T04:41:50.728Z,1009.89
2023-02-19T04:42:31.202Z,1009.93
2023-02-19T04:43:11.704Z,1009.87
2023-02-19T04:43:52.178Z,1009.96
2023-02-19T04:44:32.717Z,1010.02
2023-02-19T04:45:13.270Z,1009.95
2023-02-19T04:45:53.841Z,1010
2023-02-19T04:49:27.843Z,1009.95
2023-02-19T04:50:08.271Z,1009.97
2023-02-19T04:50:48.784Z,1009.95
2023-02-19T04:51:29.226Z,1009.98
2023-02-19T04:52:09.763Z,1009.93
2023-02-19T04:52:50.218Z,1009.93
2023-02-19T04:53:30.745Z,1009.99
2023-02-19T04:54:11.184Z,1009.92
2023-02-19T04:54:51.642Z,1010.02
2023-02-19T04:55:32.138Z,1009.97
2023-02-19T04:56:12.633Z,1009.97
2023-02-19T04:56:53.126Z,1010.05
2023-02-19T04:57:33.612Z,1010.05
2023-02-19T04:58:14.131Z,1009.96
2023-02-19T04:58:54.644Z,1009.98
2023-02-19T04:59:35.110Z,1010.06
2023-02-19T05:00:15.625Z,1009.97
2023-02-19T05:00:56.145Z,1010.06
2023-02-19T05:01:36.655Z,1010.01
2023-02-19T05:02:17.082Z,1010.02
2023-02-19T05:02:57.603Z,1010.03
2023-02-19T05:03:38.093Z,1010.07
2023-02-19T05:04:18.634Z,1010.07
2023-02-19T05:04:59.101Z,1010.05
2023-02-19T05:05:39.586Z,1010.04
2023-02-19T05:06:20.124Z,1010.06
2023-02-19T05:07:00.612Z,1010.06
2023-02-19T05:07:41.113Z,1010.05
2023-02-19T05:08:21.620Z,1010.04
2023-02-19T05:09:02.144Z,1010.04
2023-02-19T05:09:42.634Z,1010.1
2023-02-19T05:10:23.103Z,1010.08
2023-02-19T05:11:03.601Z,1010.13
2023-02-19T05:11:44.112Z,1010.1
2023-02-19T05:12:24.545Z,1009.99
2023-02-19T05:13:05.051Z,1010.06
2023-02-19T05:13:45.565Z,1010.1
2023-02-19T05:14:25.968Z,1010.09
2023-02-19T05:15:06.449Z,1010.17
2023-02-19T05:15:46.966Z,1010.13
2023-02-19T05:16:27.502Z,1010.18
2023-02-19T05:17:07.965Z,1010.22
2023-02-19T05:17:48.509Z,1010.23
2023-02-19T05:18:28.920Z,1010.17
2023-02-19T05:19:09.398Z,1010.24
2023-02-19T05:19:49.862Z,1010.25
2023-02-19T05:20:30.379Z,1010.23
2023-02-19T05:21:11.206Z,1010.16
2023-02-19T05:21:51.402Z,1010.17
2023-02-19T05:22:31.888Z,1010.19
2023-02-19T05:23:12.403Z,1010.2
2023-02-19T05:23:52.892Z,1010.21
2023-02-19T05:24:33.408Z,1010.15
2023-02-19T05:25:13.885Z,1010.18
2023-02-19T05:25:54.375Z,1010.15
2023-02-19T05:26:34.866Z,1010.37
2023-02-19T05:27:15.352Z,1010.28
2023-02-19T05:27:55.864Z,1010.32
2023-02-19T05:28:36.373Z,1010.53
2023-02-19T05:29:16.892Z,1010.38
2023-02-19T05:29:57.394Z,1010.45
2023-02-19T05:30:37.945Z,1010.42
2023-02-19T05:31:18.553Z,1010.45
2023-02-19T05:31:58.970Z,1010.43
2023-02-19T05:32:39.428Z,1010.49
2023-02-19T05:33:19.920Z,1010.37
2023-02-19T05:34:00.452Z,1010.46
2023-02-19T05:34:40.960Z,1010.5
2023-02-19T05:35:21.436Z,1010.46
2023-02-19T05:36:01.915Z,1010.41
2023-02-19T05:36:42.396Z,1010.51
2023-02-19T05:37:22.861Z,1010.54
2023-02-19T05:38:03.367Z,1010.44
2023-02-19T05:38:43.862Z,1010.36
2023-02-19T05:39:24.361Z,1010.54
2023-02-19T05:40:04.903Z,1010.48
2023-02-19T05:40:45.320Z,1010.52
2023-02-19T05:41:25.849Z,1010.58
2023-02-19T05:42:06.323Z,1010.65
2023-02-19T05:42:46.855Z,1010.61
2023-02-19T05:43:27.282Z,1010.58
2023-02-19T05:44:07.755Z,1010.66
2023-02-19T05:44:48.263Z,1010.6
2023-02-19T05:45:28.792Z,1010.66
2023-02-19T05:46:09.348Z,1010.67
2023-02-19T05:47:30.327Z,1010.64
2023-02-19T05:48:10.827Z,1010.58
2023-02-19T05:48:51.324Z,1010.62
2023-02-19T05:49:31.877Z,1010.61
2023-02-19T05:50:12.368Z,1010.69
2023-02-19T05:50:52.842Z,1010.67
2023-02-19T05:51:33.325Z,1010.74
2023-02-19T05:52:13.841Z,1010.66
2023-02-19T05:52:54.322Z,1010.72
2023-02-19T05:53:34.760Z,1010.78
2023-02-19T05:54:15.260Z,1010.81
2023-02-19T06:31:26.989Z,1011.13
2023-02-19T06:32:07.516Z,1011.05
2023-02-19T06:32:47.943Z,1011.09
2023-02-19T06:33:28.440Z,1011.03
2023-02-19T06:34:08.920Z,1011.05
2023-02-19T06:34:49.444Z,1011.05
2023-02-19T06:35:29.914Z,1011.04
2023-02-19T06:36:10.403Z,1011.17
2023-02-19T06:36:50.906Z,1011.1
2023-02-19T06:37:31.403Z,1011.08
2023-02-19T06:38:11.900Z,1011.1
2023-02-19T06:38:52.356Z,1011.03
2023-02-19T06:39:32.815Z,1011.12
2023-02-19T06:40:13.305Z,1010.98
2023-02-19T06:40:53.784Z,1011.07
2023-02-19T06:41:34.308Z,1011.11
2023-02-19T06:42:14.792Z,1011.16
2023-02-19T06:42:55.260Z,1011.17
2023-02-19T06:43:35.819Z,1011.19
2023-02-19T06:44:16.265Z,1011.22
2023-02-19T06:44:56.737Z,1011.17
2023-02-19T06:45:37.234Z,1011.23
2023-02-19T06:46:17.802Z,1011.28
2023-02-19T06:46:58.261Z,1011.29
2023-02-19T06:47:38.771Z,1011.28
2023-02-19T06:48:19.223Z,1011.25
2023-02-19T06:48:59.691Z,1011.32
2023-02-19T06:49:40.210Z,1011.34
2023-02-19T06:51:01.158Z,1011.36
2023-02-19T06:51:41.656Z,1011.37
2023-02-19T06:52:22.165Z,1011.42
2023-02-19T06:53:02.673Z,1011.38
2023-02-19T06:53:43.185Z,1011.43
2023-02-19T06:54:23.662Z,1011.42
2023-02-19T06:55:04.144Z,1011.44
2023-02-19T06:55:44.631Z,1011.36
2023-02-19T06:56:25.150Z,1011.42
2023-02-19T06:57:05.633Z,1011.44
2023-02-19T06:58:26.616Z,1011.45
2023-02-19T06:59:07.087Z,1011.37
2023-02-19T06:59:47.580Z,1011.46
2023-02-19T07:00:28.084Z,1011.48
2023-02-19T07:01:08.823Z,1011.48
2023-02-19T07:01:49.074Z,1011.46
2023-02-19T07:02:29.540Z,1011.47
2023-02-19T07:03:10.018Z,1011.45
2023-02-19T07:03:50.512Z,1011.51
2023-02-19T07:04:30.967Z,1011.52
2023-02-19T07:05:11.471Z,1011.47
2023-02-19T07:05:51.946Z,1011.47
2023-02-19T07:06:32.450Z,1011.44
2023-02-19T07:07:12.954Z,1011.43
2023-02-19T07:07:53.440Z,1011.47
2023-02-19T07:08:33.920Z,1011.49
2023-02-19T07:09:14.433Z,1011.44
2023-02-19T07:09:54.896Z,1011.45
2023-02-19T07:10:35.424Z,1011.5
2023-02-19T07:11:15.903Z,1011.51
2023-02-19T07:11:56.401Z,1011.55
2023-02-19T07:12:36.916Z,1011.49
2023-02-19T07:13:17.431Z,1011.61
2023-02-19T07:13:57.890Z,1011.47
2023-02-19T07:14:38.416Z,1011.58
2023-02-19T07:15:59.413Z,1011.66
2023-02-19T07:16:39.953Z,1011.61
2023-02-19T07:17:20.330Z,1011.7
2023-02-19T07:18:00.814Z,1011.66
2023-02-19T07:18:41.279Z,1011.7
2023-02-19T07:19:21.985Z,1011.73
2023-02-19T07:20:02.446Z,1011.79
2023-02-19T07:20:42.936Z,1011.7
2023-02-19T07:21:23.444Z,1011.74
2023-02-19T07:22:03.933Z,1011.76
2023-02-19T07:22:44.429Z,1011.79
2023-02-19T07:23:24.951Z,1011.8
2023-02-19T07:24:05.405Z,1011.82
2023-02-19T07:24:47.839Z,1011.86
2023-02-19T07:26:06.818Z,1011.86
2023-02-19T07:26:47.356Z,1011.92
2023-02-19T07:27:27.791Z,1011.89
2023-02-19T07:28:08.299Z,1011.93
2023-02-19T07:28:48.784Z,1011.85
2023-02-19T07:29:29.253Z,1011.93
2023-02-19T07:30:09.804Z,1011.92
2023-02-19T07:30:50.265Z,1011.93
2023-02-19T07:31:30.843Z,1011.93
2023-02-19T07:32:11.252Z,1011.85
2023-02-19T07:32:51.660Z,1012
2023-02-19T07:33:32.161Z,1011.96
2023-02-19T07:34:12.645Z,1011.97
2023-02-19T07:34:53.123Z,1011.96
2023-02-19T07:35:33.610Z,1012
2023-02-19T07:36:14.105Z,1012.03
2023-02-19T07:36:54.613Z,1011.97
2023-02-19T07:37:35.063Z,1012.05
2023-02-19T07:38:15.608Z,1011.93
2023-02-19T07:38:56.019Z,1012.04
2023-02-19T07:39:36.549Z,1012.05
2023-02-19T07:40:17.051Z,1012.08
2023-02-19T07:40:57.506Z,1012.08
2023-02-19T07:41:38.012Z,1012.08
2023-02-19T07:42:18.532Z,1012.05
2023-02-19T07:42:58.975Z,1012.13
2023-02-19T07:43:39.451Z,1012.05
2023-02-19T07:44:19.933Z,1012.13
2023-02-19T07:45:00.758Z,1012.17
2023-02-19T07:46:21.434Z,1012.22
2023-02-19T07:47:01.891Z,1012.26
2023-02-19T07:47:42.359Z,1012.29
2023-02-19T07:48:22.847Z,1012.25
2023-02-19T07:49:03.329Z,1012.28
2023-02-19T07:49:43.814Z,1012.3
2023-02-19T07:50:24.318Z,1012.31
2023-02-19T07:51:04.796Z,1012.25
2023-02-19T07:51:45.331Z,1012.3
2023-02-19T07:52:25.785Z,1012.28
2023-02-19T07:53:46.801Z,1012.34
2023-02-19T07:54:27.259Z,1012.29
2023-02-19T07:55:07.736Z,1012.3
2023-02-19T07:55:48.233Z,1012.31
2023-02-19T07:56:28.717Z,1012.32
2023-02-19T07:57:09.181Z,1012.35
2023-02-19T07:57:49.722Z,1012.26
2023-02-19T07:58:30.174Z,1012.33
2023-02-19T07:59:10.698Z,1012.35
2023-02-19T07:59:51.201Z,1012.4
2023-02-19T08:00:31.688Z,1012.39
2023-02-19T08:01:12.474Z,1012.44
2023-02-19T08:01:52.633Z,1012.43
2023-02-19T08:02:33.114Z,1012.41
2023-02-19T08:03:13.611Z,1012.45
2023-02-19T08:03:54.078Z,1012.42
2023-02-19T08:04:34.582Z,1012.47
2023-02-19T08:05:15.047Z,1012.43
2023-02-19T08:05:55.552Z,1012.42
2023-02-19T08:06:36.020Z,1012.44
2023-02-19T08:07:16.525Z,1012.44
2023-02-19T08:07:57.041Z,1012.45
2023-02-19T08:13:29.037Z,1012.47
2023-02-19T08:14:09.569Z,1012.53
2023-02-19T08:14:50.106Z,1012.57
2023-02-19T08:15:30.545Z,1012.59
2023-02-19T08:16:18.615Z,1012.58
2023-02-19T08:16:52.127Z,1012.64
2023-02-19T08:17:32.601Z,1012.65
2023-02-19T08:18:13.088Z,1012.63
2023-02-19T08:18:53.568Z,1012.66
2023-02-19T08:19:34.028Z,1012.62
2023-02-19T08:20:14.495Z,1012.71
2023-02-19T08:20:54.998Z,1012.65
2023-02-19T08:21:35.488Z,1012.66
2023-02-19T08:22:15.964Z,1012.65
2023-02-19T08:25:14.467Z,1012.68
2023-02-19T08:25:55.023Z,1012.74
2023-02-19T08:26:35.553Z,1012.73
2023-02-19T08:27:16.021Z,1012.73
2023-02-19T08:27:56.461Z,1012.77
2023-02-19T08:28:37.000Z,1012.77
2023-02-19T08:29:17.483Z,1012.76
2023-02-19T08:29:57.996Z,1012.78
2023-02-19T08:30:38.594Z,1012.81
2023-02-19T08:31:19.099Z,1012.84
2023-02-19T08:31:59.497Z,1012.8
2023-02-19T08:32:39.914Z,1012.8
2023-02-19T08:33:20.376Z,1012.8
2023-02-19T08:34:00.857Z,1012.79
2023-02-19T08:34:41.383Z,1012.84
2023-02-19T08:35:21.900Z,1012.83
2023-02-19T08:36:02.405Z,1012.89
2023-02-19T08:36:42.916Z,1012.87
2023-02-19T08:37:23.407Z,1012.85
2023-02-19T08:38:03.982Z,1012.82
2023-02-19T08:38:44.475Z,1012.86
2023-02-19T08:39:24.958Z,1012.9
2023-02-19T08:40:05.460Z,1012.83
2023-02-19T08:40:45.957Z,1012.86
2023-02-19T08:41:26.438Z,1012.8
2023-02-19T08:42:06.929Z,1012.83
2023-02-19T08:42:47.420Z,1012.82
2023-02-19T08:43:27.931Z,1012.78
2023-02-19T08:44:08.421Z,1012.89
2023-02-19T08:44:48.875Z,1012.91
2023-02-19T08:45:29.366Z,1012.93
2023-02-19T08:46:09.915Z,1012.91
2023-02-19T08:46:50.388Z,1012.89
2023-02-19T08:47:30.828Z,1012.83
2023-02-19T08:48:12.077Z,1012.89
2023-02-19T08:48:51.790Z,1012.88
2023-02-19T08:49:32.291Z,1012.84
2023-02-19T08:50:12.768Z,1012.88
2023-02-19T08:50:53.227Z,1012.86
2023-02-19T08:51:33.723Z,1012.91
2023-02-19T08:52:14.224Z,1012.9
2023-02-19T08:52:54.735Z,1012.94
2023-02-19T08:53:35.221Z,1012.9
2023-02-19T08:54:15.735Z,1012.93
2023-02-19T08:54:56.242Z,1012.96
2023-02-19T08:55:36.722Z,1013
2023-02-19T08:56:57.691Z,1013.03
2023-02-19T08:57:38.176Z,1013.06
2023-02-19T08:58:18.695Z,1013.05
2023-02-19T08:58:59.200Z,1013.08
2023-02-19T08:59:39.673Z,1013.1
2023-02-19T09:00:20.169Z,1013.02
2023-02-19T09:01:00.728Z,1013.05
2023-02-19T09:01:41.294Z,1012.99
2023-02-19T09:02:21.678Z,1013.04
2023-02-19T09:03:02.172Z,1013.01
2023-02-19T09:03:42.692Z,1013.04
2023-02-19T09:04:23.215Z,1013.08
2023-02-19T09:05:03.639Z,1013.05
2023-02-19T09:05:44.177Z,1013.05
2023-02-19T09:07:05.132Z,1013.02
2023-02-19T09:07:45.635Z,1013.04
2023-02-19T09:08:26.169Z,1013.08
2023-02-19T09:09:06.619Z,1013.08
2023-02-19T09:09:47.118Z,1013.06
2023-02-19T09:10:27.599Z,1012.99
2023-02-19T09:11:08.122Z,1013.08
2023-02-19T09:11:49.362Z,1013.13
2023-02-19T09:12:29.060Z,1013.09
2023-02-19T09:13:09.536Z,1013.08
2023-02-19T09:14:30.497Z,1013.13
2023-02-19T09:15:10.959Z,1013.14
2023-02-19T09:15:51.542Z,1013.16
2023-02-19T09:16:31.940Z,1013.19
2023-02-19T09:17:12.447Z,1013.16
2023-02-19T09:17:52.934Z,1013.26
2023-02-19T09:18:33.421Z,1013.26
2023-02-19T09:19:13.896Z,1013.23
2023-02-19T09:19:54.368Z,1013.23
2023-02-19T09:20:34.879Z,1013.19
2023-02-19T09:21:15.383Z,1013.21
2023-02-19T09:21:55.873Z,1013.25
2023-02-19T09:22:36.406Z,1013.17
2023-02-19T09:23:16.872Z,1013.18
2023-02-19T09:23:57.350Z,1013.14
2023-02-19T09:24:37.899Z,1013.21
2023-02-19T09:25:18.430Z,1013.18
2023-02-19T09:25:58.923Z,1013.24
2023-02-19T09:26:39.399Z,1013.19
2023-02-19T09:27:19.915Z,1013.22
2023-02-19T09:28:00.439Z,1013.27
2023-02-19T09:28:40.965Z,1013.27
2023-02-19T09:29:21.471Z,1013.25
2023-02-19T09:30:01.973Z,1013.23
2023-02-19T09:30:42.450Z,1013.25
2023-02-19T09:32:04.396Z,1013.34
2023-02-19T09:32:44.779Z,1013.32
2023-02-19T09:33:25.272Z,1013.39
2023-02-19T09:34:05.725Z,1013.35
2023-02-19T09:34:46.198Z,1013.4
2023-02-19T09:35:26.693Z,1013.39
2023-02-19T09:36:07.189Z,1013.43
2023-02-19T09:36:47.679Z,1013.43
2023-02-19T09:37:28.168Z,1013.33
2023-02-19T09:38:08.694Z,1013.42
2023-02-19T09:39:29.759Z,1013.4
2023-02-19T09:40:10.235Z,1013.46
2023-02-19T09:40:50.737Z,1013.42
2023-02-19T09:41:31.199Z,1013.41
2023-02-19T09:42:11.706Z,1013.46
2023-02-19T09:42:52.177Z,1013.48
2023-02-19T09:43:32.677Z,1013.53
2023-02-19T09:44:13.159Z,1013.44
2023-02-19T09:44:53.687Z,1013.39
2023-02-19T09:45:34.192Z,1013.43
2023-02-19T09:46:14.690Z,1013.44
2023-02-19T09:46:55.161Z,1013.39
2023-02-19T09:47:35.645Z,1013.48
2023-02-19T09:48:16.125Z,1013.48
2023-02-19T09:48:56.660Z,1013.52
2023-02-19T09:49:37.253Z,1013.49
2023-02-19T09:50:17.762Z,1013.51
2023-02-19T09:50:58.234Z,1013.44
2023-02-19T09:51:38.715Z,1013.42
2023-02-19T09:52:19.186Z,1013.5
2023-02-19T09:52:59.688Z,1013.53
2023-02-19T09:53:40.226Z,1013.53
2023-02-19T09:54:20.659Z,1013.47
2023-02-19T09:55:01.128Z,1013.53